Time;durP1;ratioP1;P1;durP2;ratioP2;P2;SDS_P1;SDS_P2;PMS_P1;PMS_P2;Temp;Humidity;BMP_temperature;BMP_pressure;BME280_temperature;BME280_humidity;BME280_pressure;Samples;Min_cycle;Max_cycle;Signal;HPM_P1;HPM_P2
2023/05/20 00:02:00;;;;;;;;;22.00;21.33;;;;;;;;6488192;39;8889;-59
2023/05/20 00:08:08;;;;;;;;;29.33;24.67;;;;;;;;6489359;39;8995;-57
2023/05/20 00:14:15;;;;;;;;;26.33;26.33;;;;;;;;6489651;46;8877;-59
2023/05/20 00:20:18;;;;;;;;;29.00;28.00;;;;;;;;6489908;31;8921;-59
2023/05/20 00:26:21;;;;;;;;;31.00;27.33;;;;;;;;6489835;39;8933;-59
2023/05/20 00:32:29;;;;;;;;;28.00;26.00;;;;;;;;6489966;31;9016;-58
2023/05/20 00:38:33;;;;;;;;;26.67;26.33;;;;;;;;6488777;39;8947;-58
2023/05/20 00:44:36;;;;;;;;;23.67;20.67;;;;;;;;6489977;39;8904;-59
2023/05/20 00:50:44;;;;;;;;;26.00;25.00;;;;;;;;6489447;36;8896;-59
2023/05/20 00:56:48;;;;;;;;;27.33;24.00;;;;;;;;6489413;39;9674;-59
2023/05/20 01:02:56;;;;;;;;;29.00;27.33;;;;;;;;6489941;31;8925;-59
2023/05/20 01:09:09;;;;;;;;;28.00;25.33;;;;;;;;6489396;39;8985;-59
2023/05/20 01:15:24;;;;;;;;;28.00;24.33;;;;;;;;5651702;36;10001640;-60
2023/05/20 01:21:31;;;;;;;;;28.00;27.00;;;;;;;;6488563;39;8927;-59
2023/05/20 01:27:35;;;;;;;;;26.33;24.00;;;;;;;;6489333;39;8905;-59
2023/05/20 01:33:44;;;;;;;;;28.67;26.33;;;;;;;;6488691;46;9051;-59
2023/05/20 01:39:55;;;;;;;;;23.67;23.67;;;;;;;;6488470;39;8870;-58
2023/05/20 01:45:58;;;;;;;;;30.00;28.33;;;;;;;;6488700;39;8923;-59
2023/05/20 01:52:04;;;;;;;;;29.33;27.00;;;;;;;;6488102;31;9810;-60
2023/05/20 01:58:08;;;;;;;;;32.00;29.33;;;;;;;;6488051;31;9060;-60
2023/05/20 02:04:13;;;;;;;;;35.00;29.67;;;;;;;;6488608;39;9003;-60
2023/05/20 02:10:16;;;;;;;;;36.33;32.00;;;;;;;;6488266;39;8916;-59
2023/05/20 02:16:23;;;;;;;;;32.33;30.67;;;;;;;;6488259;46;8875;-58
2023/05/20 02:22:27;;;;;;;;;34.00;33.67;;;;;;;;6487622;46;8913;-59
2023/05/20 02:28:33;;;;;;;;;32.67;28.67;;;;;;;;6487909;39;8919;-59
2023/05/20 02:34:40;;;;;;;;;28.33;27.00;;;;;;;;6488133;31;8913;-59
2023/05/20 02:40:44;;;;;;;;;28.33;26.33;;;;;;;;6488635;39;8872;-59
2023/05/20 02:46:52;;;;;;;;;30.00;29.67;;;;;;;;6487624;39;9077;-60
2023/05/20 02:52:59;;;;;;;;;27.67;25.33;;;;;;;;6487779;39;8911;-59
2023/05/20 02:59:03;;;;;;;;;35.25;30.75;;;;;;;;6487653;39;9493;-59
2023/05/20 03:05:11;;;;;;;;;35.33;33.00;;;;;;;;6488090;39;8932;-58
2023/05/20 03:11:20;;;;;;;;;31.33;30.67;;;;;;;;6486300;36;137148;-59
2023/05/20 03:17:26;;;;;;;;;35.00;30.67;;;;;;;;6306809;47;10002181;-59
2023/05/20 03:23:36;;;;;;;;;39.00;35.33;;;;;;;;6487580;31;8919;-59
2023/05/20 03:29:42;;;;;;;;;35.75;34.25;;;;;;;;6487575;31;8899;-60
2023/05/20 03:35:45;;;;;;;;;35.00;32.00;;;;;;;;6488433;31;8861;-59
2023/05/20 03:41:50;;;;;;;;;32.67;30.67;;;;;;;;6488691;46;8891;-58
2023/05/20 03:48:00;;;;;;;;;36.67;32.33;;;;;;;;6489120;46;8896;-60
2023/05/20 03:54:06;;;;;;;;;33.00;31.00;;;;;;;;6489926;39;8911;-59
2023/05/20 04:00:16;;;;;;;;;35.67;35.00;;;;;;;;6489999;39;8885;-60
2023/05/20 04:06:27;;;;;;;;;34.00;33.00;;;;;;;;6489171;39;8927;-57
2023/05/20 04:12:35;;;;;;;;;38.00;33.00;;;;;;;;6488083;39;8947;-59
2023/05/20 04:18:40;;;;;;;;;40.00;37.00;;;;;;;;6488584;46;8847;-59
2023/05/20 04:24:58;;;;;;;;;43.33;34.33;;;;;;;;6488680;39;8885;-58
